sensor_id;sensor_type;location;lat;lon;timestamp;temperature;humidity
35240;DHT22;21376;50.954;4.716;2024-02-26T00:02:37;7.10;99.90
35240;DHT22;21376;50.954;4.716;2024-02-26T00:05:06;7.10;99.90
35240;DHT22;21376;50.954;4.716;2024-02-26T00:07:38;7.20;99.90
35240;DHT22;21376;50.954;4.716;2024-02-26T00:10:14;7.20;99.90
35240;DHT22;21376;50.954;4.716;2024-02-26T00:12:47;7.10;99.90
35240;DHT22;21376;50.954;4.716;2024-02-26T00:15:16;7.10;99.90
35240;DHT22;21376;50.954;4.716;2024-02-26T00:17:45;7.00;99.90
35240;DHT22;21376;50.954;4.716;2024-02-26T00:20:12;6.90;99.90
35240;DHT22;21376;50.954;4.716;2024-02-26T00:22:42;6.90;99.90
35240;DHT22;21376;50.954;4.716;2024-02-26T00:25:14;6.90;99.90
35240;DHT22;21376;50.954;4.716;2024-02-26T00:27:40;7.00;99.90
35240;DHT22;21376;50.954;4.716;2024-02-26T00:30:07;7.00;99.90
35240;DHT22;21376;50.954;4.716;2024-02-26T00:32:36;6.80;99.90
35240;DHT22;21376;50.954;4.716;2024-02-26T00:35:02;6.90;99.90
35240;DHT22;21376;50.954;4.716;2024-02-26T00:37:30;6.90;99.90
35240;DHT22;21376;50.954;4.716;2024-02-26T00:39:59;6.90;99.90
35240;DHT22;21376;50.954;4.716;2024-02-26T00:42:26;7.10;99.90
35240;DHT22;21376;50.954;4.716;2024-02-26T00:44:53;6.90;99.90
35240;DHT22;21376;50.954;4.716;2024-02-26T00:47:24;6.90;99.90
35240;DHT22;21376;50.954;4.716;2024-02-26T00:49:53;6.90;99.90
35240;DHT22;21376;50.954;4.716;2024-02-26T00:52:22;6.90;99.90
35240;DHT22;21376;50.954;4.716;2024-02-26T00:54:51;6.90;99.90
35240;DHT22;21376;50.954;4.716;2024-02-26T00:57:20;6.80;99.90
35240;DHT22;21376;50.954;4.716;2024-02-26T00:59:49;6.70;99.90
35240;DHT22;21376;50.954;4.716;2024-02-26T01:02:19;6.80;99.90
35240;DHT22;21376;50.954;4.716;2024-02-26T01:04:48;6.80;99.90
35240;DHT22;21376;50.954;4.716;2024-02-26T01:07:24;6.80;99.90
35240;DHT22;21376;50.954;4.716;2024-02-26T01:10:14;6.70;99.90
35240;DHT22;21376;50.954;4.716;2024-02-26T01:12:45;6.70;99.90
35240;DHT22;21376;50.954;4.716;2024-02-26T01:15:14;6.70;99.90
35240;DHT22;21376;50.954;4.716;2024-02-26T01:17:43;6.70;99.90
35240;DHT22;21376;50.954;4.716;2024-02-26T01:20:15;6.60;99.90
35240;DHT22;21376;50.954;4.716;2024-02-26T01:22:44;6.60;99.90
35240;DHT22;21376;50.954;4.716;2024-02-26T01:25:13;6.60;99.90
35240;DHT22;21376;50.954;4.716;2024-02-26T01:27:51;6.70;99.90
35240;DHT22;21376;50.954;4.716;2024-02-26T01:30:23;6.70;99.90
35240;DHT22;21376;50.954;4.716;2024-02-26T01:32:52;6.60;99.90
35240;DHT22;21376;50.954;4.716;2024-02-26T01:38:29;6.60;99.90
35240;DHT22;21376;50.954;4.716;2024-02-26T01:40:55;6.60;99.90
35240;DHT22;21376;50.954;4.716;2024-02-26T01:43:21;6.60;99.90
35240;DHT22;21376;50.954;4.716;2024-02-26T01:45:50;6.60;99.90
35240;DHT22;21376;50.954;4.716;2024-02-26T01:48:21;6.60;99.90
35240;DHT22;21376;50.954;4.716;2024-02-26T01:50:47;6.60;99.90
35240;DHT22;21376;50.954;4.716;2024-02-26T01:53:13;6.50;99.90
35240;DHT22;21376;50.954;4.716;2024-02-26T01:55:40;6.50;99.90
35240;DHT22;21376;50.954;4.716;2024-02-26T01:58:10;6.60;99.90
35240;DHT22;21376;50.954;4.716;2024-02-26T02:00:39;6.50;99.90
35240;DHT22;21376;50.954;4.716;2024-02-26T02:03:14;6.50;99.90
35240;DHT22;21376;50.954;4.716;2024-02-26T02:05:43;6.50;99.90
35240;DHT22;21376;50.954;4.716;2024-02-26T02:08:40;6.50;99.90
35240;DHT22;21376;50.954;4.716;2024-02-26T02:11:10;6.50;99.90
35240;DHT22;21376;50.954;4.716;2024-02-26T02:13:43;6.50;99.90
35240;DHT22;21376;50.954;4.716;2024-02-26T02:16:12;6.60;99.90
35240;DHT22;21376;50.954;4.716;2024-02-26T02:18:38;6.50;99.90
35240;DHT22;21376;50.954;4.716;2024-02-26T02:21:10;6.60;99.90
35240;DHT22;21376;50.954;4.716;2024-02-26T02:23:40;6.60;99.90
35240;DHT22;21376;50.954;4.716;2024-02-26T02:26:06;6.50;99.90
35240;DHT22;21376;50.954;4.716;2024-02-26T02:31:53;6.50;99.90
35240;DHT22;21376;50.954;4.716;2024-02-26T02:34:28;6.50;99.90
35240;DHT22;21376;50.954;4.716;2024-02-26T02:36:57;6.50;99.90
35240;DHT22;21376;50.954;4.716;2024-02-26T02:39:26;6.50;99.90
35240;DHT22;21376;50.954;4.716;2024-02-26T02:41:54;6.50;99.90
35240;DHT22;21376;50.954;4.716;2024-02-26T02:44:23;6.40;99.90
35240;DHT22;21376;50.954;4.716;2024-02-26T02:46:52;6.40;99.90
35240;DHT22;21376;50.954;4.716;2024-02-26T02:49:18;6.50;99.90
35240;DHT22;21376;50.954;4.716;2024-02-26T02:51:47;6.40;99.90
35240;DHT22;21376;50.954;4.716;2024-02-26T02:54:14;6.40;99.90
35240;DHT22;21376;50.954;4.716;2024-02-26T02:56:43;6.40;99.90
35240;DHT22;21376;50.954;4.716;2024-02-26T02:59:12;6.70;99.90
35240;DHT22;21376;50.954;4.716;2024-02-26T03:01:40;6.50;99.90
35240;DHT22;21376;50.954;4.716;2024-02-26T03:04:12;6.50;99.90
35240;DHT22;21376;50.954;4.716;2024-02-26T03:06:41;6.70;99.90
35240;DHT22;21376;50.954;4.716;2024-02-26T03:09:09;6.40;99.90
35240;DHT22;21376;50.954;4.716;2024-02-26T03:11:38;6.40;99.90
35240;DHT22;21376;50.954;4.716;2024-02-26T03:14:08;6.30;99.90
35240;DHT22;21376;50.954;4.716;2024-02-26T03:16:38;6.40;99.90
35240;DHT22;21376;50.954;4.716;2024-02-26T03:19:07;6.40;99.90
35240;DHT22;21376;50.954;4.716;2024-02-26T03:21:35;6.20;99.90
35240;DHT22;21376;50.954;4.716;2024-02-26T03:24:28;6.20;99.90
35240;DHT22;21376;50.954;4.716;2024-02-26T03:27:00;6.40;99.90
35240;DHT22;21376;50.954;4.716;2024-02-26T03:29:29;6.30;99.90
35240;DHT22;21376;50.954;4.716;2024-02-26T03:32:03;6.30;99.90
35240;DHT22;21376;50.954;4.716;2024-02-26T03:34:30;6.40;99.90
35240;DHT22;21376;50.954;4.716;2024-02-26T03:36:59;6.40;99.90
35240;DHT22;21376;50.954;4.716;2024-02-26T03:39:28;6.40;99.90
35240;DHT22;21376;50.954;4.716;2024-02-26T03:41:57;6.40;99.90
35240;DHT22;21376;50.954;4.716;2024-02-26T03:44:26;6.30;99.90
35240;DHT22;21376;50.954;4.716;2024-02-26T03:46:55;6.40;99.90
35240;DHT22;21376;50.954;4.716;2024-02-26T03:49:21;6.40;99.90
35240;DHT22;21376;50.954;4.716;2024-02-26T03:51:50;6.30;99.90
35240;DHT22;21376;50.954;4.716;2024-02-26T03:54:19;6.30;99.90
35240;DHT22;21376;50.954;4.716;2024-02-26T03:56:45;6.30;99.90
35240;DHT22;21376;50.954;4.716;2024-02-26T03:59:12;6.30;99.90
35240;DHT22;21376;50.954;4.716;2024-02-26T04:01:44;6.30;99.90
35240;DHT22;21376;50.954;4.716;2024-02-26T04:04:13;6.30;99.90
35240;DHT22;21376;50.954;4.716;2024-02-26T04:06:46;6.30;99.90
35240;DHT22;21376;50.954;4.716;2024-02-26T04:09:15;6.30;99.90
35240;DHT22;21376;50.954;4.716;2024-02-26T04:11:44;6.20;99.90
35240;DHT22;21376;50.954;4.716;2024-02-26T04:14:10;6.20;99.90
35240;DHT22;21376;50.954;4.716;2024-02-26T04:16:40;6.20;99.90
35240;DHT22;21376;50.954;4.716;2024-02-26T04:19:09;6.20;99.90
35240;DHT22;21376;50.954;4.716;2024-02-26T04:21:40;6.30;99.90
35240;DHT22;21376;50.954;4.716;2024-02-26T04:24:09;6.20;99.90
35240;DHT22;21376;50.954;4.716;2024-02-26T04:27:01;6.30;99.90
35240;DHT22;21376;50.954;4.716;2024-02-26T04:29:30;6.30;99.90
35240;DHT22;21376;50.954;4.716;2024-02-26T04:31:55;6.30;99.90
35240;DHT22;21376;50.954;4.716;2024-02-26T04:34:40;6.20;99.90
35240;DHT22;21376;50.954;4.716;2024-02-26T04:37:08;6.30;99.90
35240;DHT22;21376;50.954;4.716;2024-02-26T04:39:36;6.30;99.90
35240;DHT22;21376;50.954;4.716;2024-02-26T04:42:05;6.20;99.90
35240;DHT22;21376;50.954;4.716;2024-02-26T04:44:34;6.40;99.90
35240;DHT22;21376;50.954;4.716;2024-02-26T04:47:36;6.40;99.90
35240;DHT22;21376;50.954;4.716;2024-02-26T04:53:22;6.20;99.90
35240;DHT22;21376;50.954;4.716;2024-02-26T04:55:56;6.30;99.90
35240;DHT22;21376;50.954;4.716;2024-02-26T04:58:56;6.50;99.90
35240;DHT22;21376;50.954;4.716;2024-02-26T05:01:57;6.40;99.90
35240;DHT22;21376;50.954;4.716;2024-02-26T05:04:46;6.20;99.90
35240;DHT22;21376;50.954;4.716;2024-02-26T05:07:15;6.20;99.90
35240;DHT22;21376;50.954;4.716;2024-02-26T05:09:43;6.30;99.90
35240;DHT22;21376;50.954;4.716;2024-02-26T05:12:12;6.20;99.90
35240;DHT22;21376;50.954;4.716;2024-02-26T05:14:40;6.20;99.90
35240;DHT22;21376;50.954;4.716;2024-02-26T05:17:25;6.20;99.90
35240;DHT22;21376;50.954;4.716;2024-02-26T05:19:54;6.30;99.90
35240;DHT22;21376;50.954;4.716;2024-02-26T05:22:23;6.30;99.90
35240;DHT22;21376;50.954;4.716;2024-02-26T05:24:52;6.40;99.90
35240;DHT22;21376;50.954;4.716;2024-02-26T05:27:18;6.30;99.90
35240;DHT22;21376;50.954;4.716;2024-02-26T05:30:12;6.30;99.90
35240;DHT22;21376;50.954;4.716;2024-02-26T05:32:41;6.20;99.90
35240;DHT22;21376;50.954;4.716;2024-02-26T05:35:13;6.30;99.90
35240;DHT22;21376;50.954;4.716;2024-02-26T05:37:44;6.30;99.90
35240;DHT22;21376;50.954;4.716;2024-02-26T05:43:40;6.40;99.90
35240;DHT22;21376;50.954;4.716;2024-02-26T05:46:26;6.30;99.90
35240;DHT22;21376;50.954;4.716;2024-02-26T05:49:14;6.30;99.90
35240;DHT22;21376;50.954;4.716;2024-02-26T05:51:53;6.20;99.90
35240;DHT22;21376;50.954;4.716;2024-02-26T05:54:22;6.30;99.90
35240;DHT22;21376;50.954;4.716;2024-02-26T05:56:49;6.30;99.90
35240;DHT22;21376;50.954;4.716;2024-02-26T05:59:49;6.30;99.90
35240;DHT22;21376;50.954;4.716;2024-02-26T06:02:18;6.30;99.90
35240;DHT22;21376;50.954;4.716;2024-02-26T06:04:47;6.40;99.90
35240;DHT22;21376;50.954;4.716;2024-02-26T06:07:14;6.40;99.90
35240;DHT22;21376;50.954;4.716;2024-02-26T06:56:56;6.00;99.90
35240;DHT22;21376;50.954;4.716;2024-02-26T06:59:25;6.10;99.90
35240;DHT22;21376;50.954;4.716;2024-02-26T07:01:54;6.00;99.90
35240;DHT22;21376;50.954;4.716;2024-02-26T07:04:23;6.00;99.90
35240;DHT22;21376;50.954;4.716;2024-02-26T07:10:14;6.10;99.90
35240;DHT22;21376;50.954;4.716;2024-02-26T07:12:43;6.10;99.90
35240;DHT22;21376;50.954;4.716;2024-02-26T07:15:20;6.00;99.90
35240;DHT22;21376;50.954;4.716;2024-02-26T07:17:49;6.00;99.90
35240;DHT22;21376;50.954;4.716;2024-02-26T07:20:32;6.00;99.90
35240;DHT22;21376;50.954;4.716;2024-02-26T07:23:01;6.20;99.90
35240;DHT22;21376;50.954;4.716;2024-02-26T07:25:29;6.10;99.90
35240;DHT22;21376;50.954;4.716;2024-02-26T07:27:55;6.10;99.90
35240;DHT22;21376;50.954;4.716;2024-02-26T07:30:24;6.10;99.90
35240;DHT22;21376;50.954;4.716;2024-02-26T07:32:53;6.10;99.90
35240;DHT22;21376;50.954;4.716;2024-02-26T07:35:22;6.20;99.90
35240;DHT22;21376;50.954;4.716;2024-02-26T07:37:51;6.10;99.90
35240;DHT22;21376;50.954;4.716;2024-02-26T07:40:20;6.20;99.90
35240;DHT22;21376;50.954;4.716;2024-02-26T07:42:48;6.20;99.90
35240;DHT22;21376;50.954;4.716;2024-02-26T07:45:14;6.30;99.90
35240;DHT22;21376;50.954;4.716;2024-02-26T07:47:48;6.40;99.90
35240;DHT22;21376;50.954;4.716;2024-02-26T07:50:14;6.40;99.90
35240;DHT22;21376;50.954;4.716;2024-02-26T07:52:44;6.20;99.90
35240;DHT22;21376;50.954;4.716;2024-02-26T08:00:04;6.10;99.90
35240;DHT22;21376;50.954;4.716;2024-02-26T08:02:36;6.20;99.90
35240;DHT22;21376;50.954;4.716;2024-02-26T08:05:05;6.20;99.90
35240;DHT22;21376;50.954;4.716;2024-02-26T08:07:34;6.20;99.90
35240;DHT22;21376;50.954;4.716;2024-02-26T08:10:03;6.10;99.90
35240;DHT22;21376;50.954;4.716;2024-02-26T08:12:32;6.30;99.90
35240;DHT22;21376;50.954;4.716;2024-02-26T08:15:02;6.20;99.90
35240;DHT22;21376;50.954;4.716;2024-02-26T08:17:31;6.20;99.90
35240;DHT22;21376;50.954;4.716;2024-02-26T08:23:08;6.20;99.90
35240;DHT22;21376;50.954;4.716;2024-02-26T08:25:37;6.10;99.90
35240;DHT22;21376;50.954;4.716;2024-02-26T08:28:05;6.20;99.90
35240;DHT22;21376;50.954;4.716;2024-02-26T08:30:34;6.20;99.90
35240;DHT22;21376;50.954;4.716;2024-02-26T08:33:04;6.10;99.90
35240;DHT22;21376;50.954;4.716;2024-02-26T08:35:36;6.20;99.90
35240;DHT22;21376;50.954;4.716;2024-02-26T08:38:05;6.20;99.90
35240;DHT22;21376;50.954;4.716;2024-02-26T08:40:34;6.10;99.90
35240;DHT22;21376;50.954;4.716;2024-02-26T08:43:05;6.10;99.90
35240;DHT22;21376;50.954;4.716;2024-02-26T08:48:53;6.10;99.90
35240;DHT22;21376;50.954;4.716;2024-02-26T08:51:27;6.20;99.90
35240;DHT22;21376;50.954;4.716;2024-02-26T08:53:55;6.30;99.90
35240;DHT22;21376;50.954;4.716;2024-02-26T08:56:30;6.30;99.90
35240;DHT22;21376;50.954;4.716;2024-02-26T09:19:57;6.20;99.90
35240;DHT22;21376;50.954;4.716;2024-02-26T09:22:24;6.30;99.90
35240;DHT22;21376;50.954;4.716;2024-02-26T09:24:51;6.30;99.90
35240;DHT22;21376;50.954;4.716;2024-02-26T09:27:22;6.30;99.90
35240;DHT22;21376;50.954;4.716;2024-02-26T09:29:49;6.30;99.90
35240;DHT22;21376;50.954;4.716;2024-02-26T09:32:15;6.30;99.90
35240;DHT22;21376;50.954;4.716;2024-02-26T09:34:44;6.30;99.90
35240;DHT22;21376;50.954;4.716;2024-02-26T09:37:13;6.30;99.90
35240;DHT22;21376;50.954;4.716;2024-02-26T09:39:39;6.30;99.90
35240;DHT22;21376;50.954;4.716;2024-02-26T09:42:13;6.20;99.90
35240;DHT22;21376;50.954;4.716;2024-02-26T09:44:43;6.20;99.90
35240;DHT22;21376;50.954;4.716;2024-02-26T09:47:15;6.20;99.90
35240;DHT22;21376;50.954;4.716;2024-02-26T09:49:43;6.30;99.90
35240;DHT22;21376;50.954;4.716;2024-02-26T09:52:10;6.30;99.90
35240;DHT22;21376;50.954;4.716;2024-02-26T09:55:05;6.30;99.90
35240;DHT22;21376;50.954;4.716;2024-02-26T09:57:34;6.30;99.90
35240;DHT22;21376;50.954;4.716;2024-02-26T10:00:05;6.20;99.90
35240;DHT22;21376;50.954;4.716;2024-02-26T10:02:35;6.20;99.90
35240;DHT22;21376;50.954;4.716;2024-02-26T10:08:11;6.30;99.90
35240;DHT22;21376;50.954;4.716;2024-02-26T10:10:38;6.20;99.90
35240;DHT22;21376;50.954;4.716;2024-02-26T10:13:05;6.20;99.90
35240;DHT22;21376;50.954;4.716;2024-02-26T10:15:36;6.10;99.90
35240;DHT22;21376;50.954;4.716;2024-02-26T10:18:06;6.10;99.90
35240;DHT22;21376;50.954;4.716;2024-02-26T10:20:33;6.10;99.90
35240;DHT22;21376;50.954;4.716;2024-02-26T10:23:05;6.20;99.90
35240;DHT22;21376;50.954;4.716;2024-02-26T10:25:34;6.20;99.90
35240;DHT22;21376;50.954;4.716;2024-02-26T10:28:03;6.20;99.90
35240;DHT22;21376;50.954;4.716;2024-02-26T10:30:31;6.20;99.90
35240;DHT22;21376;50.954;4.716;2024-02-26T10:33:20;6.20;99.90
35240;DHT22;21376;50.954;4.716;2024-02-26T10:35:50;6.20;99.90
35240;DHT22;21376;50.954;4.716;2024-02-26T10:38:19;6.20;99.90
35240;DHT22;21376;50.954;4.716;2024-02-26T10:41:06;6.30;99.90
35240;DHT22;21376;50.954;4.716;2024-02-26T10:43:36;6.10;99.90
35240;DHT22;21376;50.954;4.716;2024-02-26T10:46:04;6.30;99.90
35240;DHT22;21376;50.954;4.716;2024-02-26T10:48:36;6.30;99.90
35240;DHT22;21376;50.954;4.716;2024-02-26T10:51:29;6.30;99.90
35240;DHT22;21376;50.954;4.716;2024-02-26T10:53:59;6.40;99.90
35240;DHT22;21376;50.954;4.716;2024-02-26T10:56:30;6.40;99.90
35240;DHT22;21376;50.954;4.716;2024-02-26T10:59:24;6.50;99.90
35240;DHT22;21376;50.954;4.716;2024-02-26T11:05:03;6.30;99.90
35240;DHT22;21376;50.954;4.716;2024-02-26T11:07:35;6.40;99.90
35240;DHT22;21376;50.954;4.716;2024-02-26T11:10:09;6.20;99.90
35240;DHT22;21376;50.954;4.716;2024-02-26T11:12:37;6.20;99.90
35240;DHT22;21376;50.954;4.716;2024-02-26T11:15:05;6.20;99.90
35240;DHT22;21376;50.954;4.716;2024-02-26T11:17:31;6.30;99.90
35240;DHT22;21376;50.954;4.716;2024-02-26T11:20:01;6.30;99.90
35240;DHT22;21376;50.954;4.716;2024-02-26T11:22:34;6.30;99.90
35240;DHT22;21376;50.954;4.716;2024-02-26T11:25:04;6.50;99.90
35240;DHT22;21376;50.954;4.716;2024-02-26T11:27:46;6.30;99.90
35240;DHT22;21376;50.954;4.716;2024-02-26T11:30:16;6.30;99.90
35240;DHT22;21376;50.954;4.716;2024-02-26T11:32:52;6.30;99.90
35240;DHT22;21376;50.954;4.716;2024-02-26T11:35:21;6.30;99.90
35240;DHT22;21376;50.954;4.716;2024-02-26T11:37:56;6.30;99.90
35240;DHT22;21376;50.954;4.716;2024-02-26T11:40:29;6.20;99.90
35240;DHT22;21376;50.954;4.716;2024-02-26T11:43:00;6.30;99.90
35240;DHT22;21376;50.954;4.716;2024-02-26T11:48:20;6.10;99.90
35240;DHT22;21376;50.954;4.716;2024-02-26T11:54:08;6.20;99.90
35240;DHT22;21376;50.954;4.716;2024-02-26T11:56:40;6.10;99.90
35240;DHT22;21376;50.954;4.716;2024-02-26T11:59:10;6.10;99.90
35240;DHT22;21376;50.954;4.716;2024-02-26T12:01:44;6.20;99.90
35240;DHT22;21376;50.954;4.716;2024-02-26T12:04:18;6.00;99.90
35240;DHT22;21376;50.954;4.716;2024-02-26T12:07:03;6.10;99.90
35240;DHT22;21376;50.954;4.716;2024-02-26T12:09:40;6.10;99.90
35240;DHT22;21376;50.954;4.716;2024-02-26T12:12:18;6.10;99.90
35240;DHT22;21376;50.954;4.716;2024-02-26T12:14:56;6.20;99.90
35240;DHT22;21376;50.954;4.716;2024-02-26T12:17:34;6.30;99.90
35240;DHT22;21376;50.954;4.716;2024-02-26T12:20:13;6.30;99.90
35240;DHT22;21376;50.954;4.716;2024-02-26T12:25:39;6.30;99.90
35240;DHT22;21376;50.954;4.716;2024-02-26T12:31:36;6.40;99.90
35240;DHT22;21376;50.954;4.716;2024-02-26T12:34:09;6.30;99.90
35240;DHT22;21376;50.954;4.716;2024-02-26T12:36:40;6.10;99.90
35240;DHT22;21376;50.954;4.716;2024-02-26T12:39:09;6.00;99.90
35240;DHT22;21376;50.954;4.716;2024-02-26T12:41:58;6.00;99.90
35240;DHT22;21376;50.954;4.716;2024-02-26T12:44:27;6.00;99.90
35240;DHT22;21376;50.954;4.716;2024-02-26T12:47:03;6.10;99.90
35240;DHT22;21376;50.954;4.716;2024-02-26T12:49:41;6.20;99.90
35240;DHT22;21376;50.954;4.716;2024-02-26T12:52:10;6.10;99.90
35240;DHT22;21376;50.954;4.716;2024-02-26T12:54:39;6.20;99.90
35240;DHT22;21376;50.954;4.716;2024-02-26T12:57:10;6.30;99.90
35240;DHT22;21376;50.954;4.716;2024-02-26T12:59:39;6.40;99.90
35240;DHT22;21376;50.954;4.716;2024-02-26T13:02:08;6.30;99.90
35240;DHT22;21376;50.954;4.716;2024-02-26T13:04:34;6.30;99.90
35240;DHT22;21376;50.954;4.716;2024-02-26T13:07:04;6.30;99.90
35240;DHT22;21376;50.954;4.716;2024-02-26T13:09:54;6.20;99.90
35240;DHT22;21376;50.954;4.716;2024-02-26T13:12:24;6.20;99.90
35240;DHT22;21376;50.954;4.716;2024-02-26T13:18:13;6.20;99.90
35240;DHT22;21376;50.954;4.716;2024-02-26T13:20:42;6.30;99.90
35240;DHT22;21376;50.954;4.716;2024-02-26T13:23:12;6.20;99.90
35240;DHT22;21376;50.954;4.716;2024-02-26T13:25:40;6.10;99.90
35240;DHT22;21376;50.954;4.716;2024-02-26T13:28:16;6.20;99.90
35240;DHT22;21376;50.954;4.716;2024-02-26T13:30:52;6.20;99.90
35240;DHT22;21376;50.954;4.716;2024-02-26T13:33:22;6.10;99.90
35240;DHT22;21376;50.954;4.716;2024-02-26T13:35:58;6.10;99.90
35240;DHT22;21376;50.954;4.716;2024-02-26T13:38:30;6.20;99.90
35240;DHT22;21376;50.954;4.716;2024-02-26T13:44:06;6.10;99.90
35240;DHT22;21376;50.954;4.716;2024-02-26T13:46:35;6.20;99.90
35240;DHT22;21376;50.954;4.716;2024-02-26T13:49:04;6.20;99.90
35240;DHT22;21376;50.954;4.716;2024-02-26T13:51:33;6.20;99.90
35240;DHT22;21376;50.954;4.716;2024-02-26T13:54:03;6.20;99.90
35240;DHT22;21376;50.954;4.716;2024-02-26T13:56:33;6.10;99.90
35240;DHT22;21376;50.954;4.716;2024-02-26T14:02:14;6.20;99.90
35240;DHT22;21376;50.954;4.716;2024-02-26T14:04:47;6.10;99.90
35240;DHT22;21376;50.954;4.716;2024-02-26T14:07:16;6.10;99.90
35240;DHT22;21376;50.954;4.716;2024-02-26T14:09:43;6.10;99.90
35240;DHT22;21376;50.954;4.716;2024-02-26T14:12:12;6.10;99.90
35240;DHT22;21376;50.954;4.716;2024-02-26T14:14:41;6.20;99.90
35240;DHT22;21376;50.954;4.716;2024-02-26T14:17:14;6.20;99.90
35240;DHT22;21376;50.954;4.716;2024-02-26T14:19:43;6.20;99.90
35240;DHT22;21376;50.954;4.716;2024-02-26T14:22:15;6.20;99.90
35240;DHT22;21376;50.954;4.716;2024-02-26T14:24:44;6.20;99.90
35240;DHT22;21376;50.954;4.716;2024-02-26T14:27:13;6.40;99.90
35240;DHT22;21376;50.954;4.716;2024-02-26T14:32:56;6.30;99.90
35240;DHT22;21376;50.954;4.716;2024-02-26T14:35:25;6.50;99.90
35240;DHT22;21376;50.954;4.716;2024-02-26T14:38:10;6.30;99.90
35240;DHT22;21376;50.954;4.716;2024-02-26T14:52:39;6.30;99.90
35240;DHT22;21376;50.954;4.716;2024-02-26T14:55:06;6.30;99.90
35240;DHT22;21376;50.954;4.716;2024-02-26T14:57:35;6.20;99.90
35240;DHT22;21376;50.954;4.716;2024-02-26T15:00:04;6.20;99.90
35240;DHT22;21376;50.954;4.716;2024-02-26T15:02:37;6.10;99.90
35240;DHT22;21376;50.954;4.716;2024-02-26T15:11:29;6.10;99.90
35240;DHT22;21376;50.954;4.716;2024-02-26T15:14:00;6.10;99.90
35240;DHT22;21376;50.954;4.716;2024-02-26T15:16:29;6.10;99.90
35240;DHT22;21376;50.954;4.716;2024-02-26T15:18:59;6.10;99.90
35240;DHT22;21376;50.954;4.716;2024-02-26T15:21:28;6.10;99.90
35240;DHT22;21376;50.954;4.716;2024-02-26T15:23:57;6.20;99.90
35240;DHT22;21376;50.954;4.716;2024-02-26T15:26:25;6.20;99.90
35240;DHT22;21376;50.954;4.716;2024-02-26T15:28:54;6.20;99.90
35240;DHT22;21376;50.954;4.716;2024-02-26T15:31:23;6.10;99.90
35240;DHT22;21376;50.954;4.716;2024-02-26T15:33:52;6.10;99.90
35240;DHT22;21376;50.954;4.716;2024-02-26T15:36:26;6.00;99.90
35240;DHT22;21376;50.954;4.716;2024-02-26T15:38:55;5.90;99.90
35240;DHT22;21376;50.954;4.716;2024-02-26T15:41:27;6.20;99.90
35240;DHT22;21376;50.954;4.716;2024-02-26T15:43:55;6.10;99.90
35240;DHT22;21376;50.954;4.716;2024-02-26T15:46:24;6.10;99.90
35240;DHT22;21376;50.954;4.716;2024-02-26T15:48:56;6.10;99.90
35240;DHT22;21376;50.954;4.716;2024-02-26T15:51:24;6.00;99.90
35240;DHT22;21376;50.954;4.716;2024-02-26T15:53:53;6.20;99.90
35240;DHT22;21376;50.954;4.716;2024-02-26T15:56:22;6.20;99.90
35240;DHT22;21376;50.954;4.716;2024-02-26T15:59:25;6.20;99.90
35240;DHT22;21376;50.954;4.716;2024-02-26T16:01:59;6.20;99.90
35240;DHT22;21376;50.954;4.716;2024-02-26T16:04:28;6.40;99.90
35240;DHT22;21376;50.954;4.716;2024-02-26T16:07:01;6.10;99.90
35240;DHT22;21376;50.954;4.716;2024-02-26T16:10:04;6.20;99.90
35240;DHT22;21376;50.954;4.716;2024-02-26T16:16:06;6.10;99.90
35240;DHT22;21376;50.954;4.716;2024-02-26T16:21:38;6.10;99.90
35240;DHT22;21376;50.954;4.716;2024-02-26T16:24:07;6.10;99.90
35240;DHT22;21376;50.954;4.716;2024-02-26T16:26:36;6.10;99.90
35240;DHT22;21376;50.954;4.716;2024-02-26T16:29:05;6.20;99.90
35240;DHT22;21376;50.954;4.716;2024-02-26T16:31:34;6.20;99.90
35240;DHT22;21376;50.954;4.716;2024-02-26T16:34:02;6.20;99.90
35240;DHT22;21376;50.954;4.716;2024-02-26T16:36:30;6.30;99.90
35240;DHT22;21376;50.954;4.716;2024-02-26T16:38:59;6.30;99.90
35240;DHT22;21376;50.954;4.716;2024-02-26T16:41:28;6.20;99.90
35240;DHT22;21376;50.954;4.716;2024-02-26T16:43:57;6.30;99.90
35240;DHT22;21376;50.954;4.716;2024-02-26T16:46:29;6.20;99.90
35240;DHT22;21376;50.954;4.716;2024-02-26T17:50:16;6.10;99.90
35240;DHT22;21376;50.954;4.716;2024-02-26T17:52:51;6.10;99.90
35240;DHT22;21376;50.954;4.716;2024-02-26T17:55:19;6.10;99.90
35240;DHT22;21376;50.954;4.716;2024-02-26T17:57:57;6.00;99.90
35240;DHT22;21376;50.954;4.716;2024-02-26T18:06:45;6.20;99.90
35240;DHT22;21376;50.954;4.716;2024-02-26T18:09:14;6.20;99.90
35240;DHT22;21376;50.954;4.716;2024-02-26T18:11:44;6.10;99.90
35240;DHT22;21376;50.954;4.716;2024-02-26T18:14:20;6.20;99.90
35240;DHT22;21376;50.954;4.716;2024-02-26T18:16:46;6.10;99.90
35240;DHT22;21376;50.954;4.716;2024-02-26T18:19:15;6.20;99.90
35240;DHT22;21376;50.954;4.716;2024-02-26T18:21:47;6.10;99.90
35240;DHT22;21376;50.954;4.716;2024-02-26T18:24:17;6.10;99.90
35240;DHT22;21376;50.954;4.716;2024-02-26T18:26:45;6.10;99.90
35240;DHT22;21376;50.954;4.716;2024-02-26T18:29:21;5.90;99.90
35240;DHT22;21376;50.954;4.716;2024-02-26T18:35:16;6.10;99.90
35240;DHT22;21376;50.954;4.716;2024-02-26T18:37:43;6.10;99.90
35240;DHT22;21376;50.954;4.716;2024-02-26T18:43:16;6.10;99.90
35240;DHT22;21376;50.954;4.716;2024-02-26T18:45:45;6.10;99.90
35240;DHT22;21376;50.954;4.716;2024-02-26T18:48:13;6.10;99.90
35240;DHT22;21376;50.954;4.716;2024-02-26T18:50:39;6.20;99.90
35240;DHT22;21376;50.954;4.716;2024-02-26T18:53:08;6.20;99.90
35240;DHT22;21376;50.954;4.716;2024-02-26T18:55:36;6.40;99.90
35240;DHT22;21376;50.954;4.716;2024-02-26T18:58:05;6.20;99.90
35240;DHT22;21376;50.954;4.716;2024-02-26T19:00:36;6.20;99.90
35240;DHT22;21376;50.954;4.716;2024-02-26T19:03:02;6.10;99.90
35240;DHT22;21376;50.954;4.716;2024-02-26T19:05:30;6.10;99.90
35240;DHT22;21376;50.954;4.716;2024-02-26T19:08:00;6.10;99.90
35240;DHT22;21376;50.954;4.716;2024-02-26T19:10:30;6.10;99.90
35240;DHT22;21376;50.954;4.716;2024-02-26T19:13:02;6.00;99.90
35240;DHT22;21376;50.954;4.716;2024-02-26T19:15:30;6.00;99.90
35240;DHT22;21376;50.954;4.716;2024-02-26T19:18:01;6.10;99.90
35240;DHT22;21376;50.954;4.716;2024-02-26T19:20:28;6.00;99.90
35240;DHT22;21376;50.954;4.716;2024-02-26T19:29:24;6.00;99.90
35240;DHT22;21376;50.954;4.716;2024-02-26T19:31:51;6.10;99.90
35240;DHT22;21376;50.954;4.716;2024-02-26T19:34:17;6.10;99.90
35240;DHT22;21376;50.954;4.716;2024-02-26T19:36:44;6.10;99.90
35240;DHT22;21376;50.954;4.716;2024-02-26T19:39:12;6.10;99.90
35240;DHT22;21376;50.954;4.716;2024-02-26T19:41:44;6.00;99.90
35240;DHT22;21376;50.954;4.716;2024-02-26T19:44:19;6.00;99.90
35240;DHT22;21376;50.954;4.716;2024-02-26T19:46:47;6.10;99.90
35240;DHT22;21376;50.954;4.716;2024-02-26T19:49:13;6.00;99.90
35240;DHT22;21376;50.954;4.716;2024-02-26T19:51:42;6.10;99.90
35240;DHT22;21376;50.954;4.716;2024-02-26T19:54:14;6.10;99.90
35240;DHT22;21376;50.954;4.716;2024-02-26T19:56:41;6.10;99.90
35240;DHT22;21376;50.954;4.716;2024-02-26T19:59:11;6.20;99.90
35240;DHT22;21376;50.954;4.716;2024-02-26T20:01:58;6.20;99.90
35240;DHT22;21376;50.954;4.716;2024-02-26T20:04:27;6.20;99.90